KBGR/BGR METAR and TAF weather

Enter ICAO airport designator
Station Type Date Time Source
KBGR METAR 2019/12/14 05:53 UTC NOAA

KBGR 140553Z 14007KT 7SM -RA OVC008 06/05 A3022 RMK AO2 SLP235 P0000 60001 I6000 T00610050 10061 20011 58029


Station Type Date Time Source
KBGR Decoded METAR 2019/12/14 05:53 UTC NOAA

BANGOR INT'L AIRPORT, ME, United States (KBGR) 44-48N 068-49W 57M
Dec 14, 2019 - 12:53 AM EST / 2019.12.14 0553 UTC
Wind: from the SE (140 degrees) at 8 MPH (7 KT):0
Visibility: 7 mile(s):0
Sky conditions: overcast
Weather: light rain
Precipitation last hour: A trace
Temperature: 43.0 F (6.1 C)
Dew Point: 41.0 F (5.0 C)
Relative Humidity: 92%
Pressure (altimeter): 30.22 in. Hg (1023 hPa)
Pressure tendency: 0.09 inches (2.9 hPa) lower than three hours ago
ob: KBGR 140553Z 14007KT 7SM -RA OVC008 06/05 A3022 RMK AO2 SLP235 P0000 60001 I6000 T00610050 10061 20011 58029
cycle: 6

Station Type Date Time Source
KBGR TAF 2019/12/14 06:30 UTC NOAA

TAF KBGR 140528Z 1406/1506 14006KT 5SM -RA OVC015
FM141200 10011G20KT 1SM RA OVC009 WS020/14035KT
FM142200 13008KT 2SM RA OVC002 WS020/19045KT
FM150500 18010KT P6SM VCSH OVC005 WS020/20050KT

Example: see airport list